Terminal Aerodrome Forecast
Issued by NWS Sterling, VA

Current Version | Previous Version | Graphics & Text | Print | Product List | Glossary On
Versions: 1 2 3 4 5 6 7 8 9 10 11 12 13 14 15 16 17 18 19 20 21 22 23 24 25
093
FTUS41 KLWX 180831 AAA
TAFIAD
TAF AMD
KIAD 180831Z 1809/1912 VRB03KT P6SM FEW025 SCT250
     FM181000 00000KT 4SM BR SCT025 BKN250
     FM181500 VRB03KT P6SM FEW040 SCT250
     FM181800 17004KT P6SM VCTS SCT060CB BKN250
     FM182300 16005KT P6SM FEW060 SCT250
     FM190900 00000KT 3SM BR FEW025 SCT250=

USA.gov is the U.S. government's official web portal to all federal, state and local government web resources and services.